Time;durP1;ratioP1;P1;durP2;ratioP2;P2;SDS_P1;SDS_P2;PMS_P1;PMS_P2;Temp;Humidity;BMP_temperature;BMP_pressure;BME280_temperature;BME280_humidity;BME280_pressure;Samples;Min_cycle;Max_cycle;Signal;HPM_P1;HPM_P2
2022/12/10 00:01:34;;;;;;;32.45;18.92;;;;;;;-0.60;100.00;96054.06;5048207;28;20065;-65
2022/12/10 00:04:01;;;;;;;33.58;19.23;;;;;;;-0.57;100.00;96055.47;5049260;28;20087;-64
2022/12/10 00:06:30;;;;;;;32.33;18.25;;;;;;;-0.49;100.00;96057.03;5049472;28;20504;-65
2022/12/10 00:08:58;;;;;;;35.63;19.13;;;;;;;-0.58;100.00;96062.66;5049443;28;20462;-64
2022/12/10 00:11:25;;;;;;;32.00;18.27;;;;;;;-0.50;100.00;96063.41;5060772;28;20049;-64
2022/12/10 00:13:52;;;;;;;35.92;20.42;;;;;;;-0.48;100.00;96067.47;5028710;28;20055;-64
2022/12/10 00:16:21;;;;;;;35.15;19.08;;;;;;;-0.52;100.00;96068.94;5029455;28;20041;-63
2022/12/10 00:18:49;;;;;;;33.67;18.00;;;;;;;-0.54;100.00;96065.69;5037270;28;20045;-65
2022/12/10 00:21:21;;;;;;;30.95;18.50;;;;;;;-0.54;100.00;96069.16;5047252;28;20045;-64
2022/12/10 00:23:49;;;;;;;35.65;18.50;;;;;;;-0.60;100.00;96070.00;5049204;28;20112;-65
2022/12/10 00:26:21;;;;;;;36.55;19.13;;;;;;;-0.55;100.00;96064.06;5045111;28;20037;-64
2022/12/10 00:28:48;;;;;;;32.08;18.67;;;;;;;-0.72;100.00;96063.72;5049155;28;20102;-64
2022/12/10 00:31:17;;;;;;;31.20;18.85;;;;;;;-0.70;100.00;96062.47;5047117;28;20044;-65
2022/12/10 00:33:45;;;;;;;35.05;20.55;;;;;;;-0.66;100.00;96061.03;5047585;28;20440;-64
2022/12/10 00:36:18;;;;;;;35.35;20.55;;;;;;;-0.71;100.00;96060.84;5048854;28;20120;-64
2022/12/10 00:38:45;;;;;;;34.38;19.60;;;;;;;-0.71;100.00;96060.03;5047404;28;20051;-64
2022/12/10 00:41:12;;;;;;;42.90;20.65;;;;;;;-0.67;100.00;96070.03;5046909;28;20139;-64
2022/12/10 00:43:39;;;;;;;35.03;20.00;;;;;;;-0.75;100.00;96062.31;5028618;28;20076;-64
2022/12/10 00:46:06;;;;;;;36.13;18.63;;;;;;;-0.71;100.00;96068.00;5048327;28;20045;-64
2022/12/10 00:48:33;;;;;;;35.58;18.48;;;;;;;-0.69;100.00;96068.63;5048723;28;20194;-64
2022/12/10 00:51:06;;;;;;;33.22;18.48;;;;;;;-0.65;100.00;96072.50;5047971;28;20500;-64
2022/12/10 00:53:34;;;;;;;34.20;18.10;;;;;;;-0.75;100.00;96067.63;5033600;28;20076;-65
2022/12/10 00:56:03;;;;;;;35.17;18.38;;;;;;;-0.71;100.00;96063.53;5028073;28;20071;-65
2022/12/10 00:58:32;;;;;;;35.85;18.55;;;;;;;-0.77;100.00;96072.34;5043024;28;20114;-64
2022/12/10 01:01:21;;;;;;;35.42;20.00;;;;;;;-0.73;100.00;96078.06;5045796;28;20536;-64
2022/12/10 01:03:50;;;;;;;33.95;18.13;;;;;;;-0.65;100.00;96077.81;5048016;28;20033;-64
2022/12/10 01:06:20;;;;;;;34.22;17.90;;;;;;;-0.61;100.00;96083.50;5047917;28;20102;-64
2022/12/10 01:08:49;;;;;;;30.80;19.20;;;;;;;-0.55;100.00;96090.66;5046768;28;20040;-65
2022/12/10 01:11:18;;;;;;;31.85;17.10;;;;;;;-0.50;100.00;96095.31;5046202;28;20040;-64
2022/12/10 01:13:47;;;;;;;33.47;17.85;;;;;;;-0.56;100.00;96089.81;5027379;28;20084;-64
2022/12/10 01:16:17;;;;;;;32.70;18.40;;;;;;;-0.56;100.00;96089.00;5026614;28;20129;-64
2022/12/10 01:18:43;;;;;;;33.38;18.45;;;;;;;-0.61;100.00;96094.13;5031501;28;20044;-64
2022/12/10 01:21:12;;;;;;;32.53;18.15;;;;;;;-0.64;100.00;96092.72;5047467;28;20575;-64
2022/12/10 01:23:42;;;;;;;33.20;18.25;;;;;;;-0.60;100.00;96098.44;5047683;28;20048;-63
2022/12/10 01:26:12;;;;;;;30.05;16.85;;;;;;;-0.59;100.00;96100.88;5047239;28;20073;-63
2022/12/10 01:28:39;;;;;;;29.17;17.63;;;;;;;-0.56;100.00;96097.81;5046289;28;20037;-63
2022/12/10 01:31:12;;;;;;;32.28;18.15;;;;;;;-0.57;100.00;96101.50;5046444;28;20044;-64
2022/12/10 01:33:40;;;;;;;33.33;18.75;;;;;;;-0.58;100.00;96107.03;5047444;28;20041;-64
2022/12/10 01:36:22;;;;;;;31.88;17.10;;;;;;;-0.57;100.00;96105.97;5046777;28;20118;-63
2022/12/10 01:38:49;;;;;;;31.65;17.33;;;;;;;-0.54;100.00;96110.88;5047060;28;20053;-63
2022/12/10 01:41:19;;;;;;;32.00;17.98;;;;;;;-0.51;100.00;96106.97;5046432;28;20066;-64
2022/12/10 01:43:58;;;;;;;31.40;17.55;;;;;;;-0.57;100.00;96116.63;5045304;28;20041;-64
2022/12/10 01:46:30;;;;;;;36.05;19.45;;;;;;;-0.70;100.00;96123.63;5046384;28;20090;-64
2022/12/10 01:48:59;;;;;;;35.97;19.00;;;;;;;-0.64;100.00;96111.34;5045976;28;20045;-63
2022/12/10 01:51:29;;;;;;;34.25;19.10;;;;;;;-0.66;100.00;96118.72;5046643;28;20220;-64
2022/12/10 01:53:56;;;;;;;34.97;18.67;;;;;;;-0.71;100.00;96114.03;5046498;28;20083;-63
2022/12/10 01:56:23;;;;;;;33.63;18.77;;;;;;;-0.73;100.00;96116.09;5046852;28;20466;-63
2022/12/10 01:58:54;;;;;;;35.35;18.23;;;;;;;-0.83;100.00;96118.38;5045741;28;20510;-63
2022/12/10 02:01:31;;;;;;;36.30;18.67;;;;;;;-0.80;100.00;96123.28;5044960;28;20044;-63
2022/12/10 02:04:09;;;;;;;35.92;19.70;;;;;;;-0.79;100.00;96119.56;5046923;28;20064;-63
2022/12/10 02:06:47;;;;;;;35.65;19.13;;;;;;;-0.79;100.00;96119.56;5046388;28;20041;-62
2022/12/10 02:09:28;;;;;;;32.00;18.80;;;;;;;-0.81;100.00;96119.78;5048202;28;20048;-63
2022/12/10 02:12:16;;;;;;;31.95;17.45;;;;;;;-0.84;100.00;96124.72;5056174;28;20129;-63
2022/12/10 02:14:53;;;;;;;34.45;17.67;;;;;;;-0.82;100.00;96112.84;5045291;28;20068;-64
2022/12/10 02:17:37;;;;;;;33.13;17.95;;;;;;;-0.81;100.00;96122.44;5041385;28;20041;-63
2022/12/10 02:20:32;;;;;;;30.83;17.88;;;;;;;-0.71;100.00;96115.84;5028662;28;20059;-63
2022/12/10 02:23:00;;;;;;;31.20;17.63;;;;;;;-0.72;100.00;96115.06;5036255;28;20128;-64
2022/12/10 02:25:54;;;;;;;34.33;18.10;;;;;;;-0.71;100.00;96121.19;5040217;28;20045;-63
2022/12/10 02:28:44;;;;;;;27.30;16.65;;;;;;;-0.71;100.00;96113.19;5046408;28;20049;-64
2022/12/10 02:31:16;;;;;;;32.08;18.08;;;;;;;-0.71;100.00;96103.41;5044340;28;20536;-63
2022/12/10 02:33:49;;;;;;;32.20;17.02;;;;;;;-0.72;100.00;96104.44;5044644;28;20041;-63
2022/12/10 02:36:18;;;;;;;29.55;17.02;;;;;;;-0.73;100.00;96102.81;5046513;28;20460;-63
2022/12/10 02:38:49;;;;;;;30.40;16.88;;;;;;;-0.67;100.00;96101.13;5045262;28;20401;-64
2022/12/10 02:41:25;;;;;;;30.92;17.30;;;;;;;-0.60;100.00;96098.44;5044146;28;20678;-64
2022/12/10 02:43:54;;;;;;;30.48;17.33;;;;;;;-0.65;100.00;96096.41;5036322;28;20048;-62
2022/12/10 02:46:23;;;;;;;27.95;16.98;;;;;;;-0.63;100.00;96088.22;5058146;28;20037;-62
2022/12/10 02:48:51;;;;;;;28.42;15.55;;;;;;;-0.66;100.00;96076.97;5040401;28;20560;-63
2022/12/10 02:51:17;;;;;;;31.60;16.67;;;;;;;-0.69;100.00;96077.44;5024715;28;20045;-63
2022/12/10 02:53:44;;;;;;;33.63;18.65;;;;;;;-0.71;100.00;96074.16;5024424;28;20132;-63
2022/12/10 02:56:23;;;;;;;27.17;16.50;;;;;;;-0.77;100.00;96063.56;5024840;28;20067;-63
2022/12/10 02:59:18;;;;;;;30.60;17.42;;;;;;;-0.81;100.00;96065.84;5025136;28;20052;-62
2022/12/10 03:02:21;;;;;;;30.73;15.75;;;;;;;-0.88;100.00;96065.03;5023909;28;20128;-62
2022/12/10 03:05:14;;;;;;;29.33;16.42;;;;;;;-0.97;100.00;96069.75;5026089;28;20133;-63
2022/12/10 03:07:48;;;;;;;28.15;16.77;;;;;;;-1.21;100.00;96085.38;5025105;28;20053;-63
2022/12/10 03:10:28;;;;;;;26.98;15.30;;;;;;;-1.33;100.00;96088.66;5054397;28;20581;-63
2022/12/10 03:12:59;;;;;;;27.60;16.58;;;;;;;-1.45;100.00;96091.16;5048468;28;20107;-63
2022/12/10 03:15:29;;;;;;;31.85;16.77;;;;;;;-1.63;100.00;96093.63;5033805;28;20053;-63
2022/12/10 03:17:58;;;;;;;30.42;16.10;;;;;;;-1.52;100.00;96100.97;5025662;28;20575;-63
2022/12/10 03:20:26;;;;;;;33.70;17.92;;;;;;;-1.53;100.00;96098.50;5044349;28;20045;-63
2022/12/10 03:22:53;;;;;;;31.73;18.60;;;;;;;-1.79;100.00;96095.69;5045354;28;20047;-63
2022/12/10 03:25:24;;;;;;;32.05;17.13;;;;;;;-1.77;100.00;96095.47;5045258;28;20860;-63
2022/12/10 03:27:54;;;;;;;37.15;18.02;;;;;;;-1.70;100.00;96089.13;5046144;28;20124;-62
2022/12/10 03:30:21;;;;;;;34.17;17.67;;;;;;;-1.61;100.00;96078.31;5045536;28;20144;-63
2022/12/10 03:32:48;;;;;;;34.70;18.00;;;;;;;-1.52;100.00;96071.75;5045561;28;20045;-63
2022/12/10 03:35:18;;;;;;;32.75;18.08;;;;;;;-1.43;100.00;96072.38;5046015;28;20520;-62
2022/12/10 03:37:45;;;;;;;34.08;20.02;;;;;;;-1.38;100.00;96066.41;5045649;28;20051;-63
2022/12/10 03:40:12;;;;;;;33.67;18.80;;;;;;;-1.36;100.00;96069.69;5045940;28;20119;-64
2022/12/10 03:42:39;;;;;;;36.55;18.77;;;;;;;-1.41;100.00;96080.94;5045225;28;20061;-63
2022/12/10 03:45:06;;;;;;;39.03;18.38;;;;;;;-1.41;100.00;96088.91;5044901;28;20044;-63
2022/12/10 03:47:33;;;;;;;34.22;18.70;;;;;;;-1.42;100.00;96092.56;5043160;28;20044;-62
2022/12/10 03:49:59;;;;;;;34.22;17.40;;;;;;;-1.68;100.00;96099.56;5045877;28;20565;-63
2022/12/10 03:52:26;;;;;;;32.30;17.33;;;;;;;-1.74;100.00;96108.31;5045477;28;20120;-64
2022/12/10 03:54:52;;;;;;;33.60;17.95;;;;;;;-1.66;100.00;96110.78;5046312;28;20706;-64
2022/12/10 03:57:19;;;;;;;34.95;19.08;;;;;;;-1.57;100.00;96122.00;5049348;28;20049;-63
2022/12/10 03:59:45;;;;;;;34.67;18.15;;;;;;;-1.42;100.00;96119.13;5047976;28;20052;-64
2022/12/10 04:02:12;;;;;;;36.92;19.30;;;;;;;-1.41;100.00;96112.00;5028276;28;20525;-63
2022/12/10 04:04:39;;;;;;;34.42;18.52;;;;;;;-1.49;100.00;96113.84;5029001;28;20041;-62
2022/12/10 04:07:05;;;;;;;36.40;18.80;;;;;;;-1.49;100.00;96113.00;5028801;28;20460;-64
2022/12/10 04:09:32;;;;;;;38.10;18.20;;;;;;;-1.49;100.00;96113.84;5036692;28;20105;-64
2022/12/10 04:11:59;;;;;;;33.38;17.35;;;;;;;-1.49;100.00;96116.47;5058903;28;20045;-64
2022/12/10 04:17:11;;;;;;;32.95;17.80;;;;;;;-1.49;100.00;96113.84;5048870;28;20048;-63
2022/12/10 04:19:38;;;;;;;38.58;18.80;;;;;;;-1.54;100.00;96113.63;5038531;28;20448;-63
2022/12/10 04:27:53;;;;;;;31.50;16.30;;;;;;;-1.14;100.00;96126.00;5028950;28;19928;-63
2022/12/10 04:30:19;;;;;;;33.35;19.13;;;;;;;-0.99;100.00;96114.34;5033128;28;20134;-62
2022/12/10 04:32:46;;;;;;;32.92;17.70;;;;;;;-1.07;100.00;96110.06;5044987;28;20037;-62
2022/12/10 04:35:12;;;;;;;39.88;19.60;;;;;;;-1.10;100.00;96116.59;5045162;28;20128;-62
2022/12/10 04:37:38;;;;;;;29.73;17.10;;;;;;;-1.05;100.00;96130.09;5045806;28;20377;-63
2022/12/10 04:40:06;;;;;;;35.08;18.33;;;;;;;-1.07;100.00;96132.13;5040781;28;20606;-62
2022/12/10 04:42:33;;;;;;;32.38;17.60;;;;;;;-1.10;100.00;96119.25;5047709;28;20098;-62
2022/12/10 04:45:00;;;;;;;32.45;16.95;;;;;;;-1.03;100.00;96124.56;5037767;28;20646;-62
2022/12/10 04:47:26;;;;;;;32.25;17.95;;;;;;;-0.99;100.00;96132.94;5047907;28;20044;-62
2022/12/10 04:49:53;;;;;;;31.75;17.33;;;;;;;-0.95;100.00;96128.84;5048748;28;20070;-63
2022/12/10 04:52:19;;;;;;;30.05;17.70;;;;;;;-1.03;100.00;96129.06;5047759;28;20583;-62
2022/12/10 04:54:46;;;;;;;32.83;18.10;;;;;;;-1.02;100.00;96125.38;5031465;28;20084;-63
2022/12/10 04:57:13;;;;;;;31.75;17.27;;;;;;;-1.02;100.00;96120.88;5028329;28;20049;-62
2022/12/10 04:59:40;;;;;;;29.35;17.33;;;;;;;-1.01;100.00;96111.06;5027907;28;20038;-62
2022/12/10 05:02:07;;;;;;;33.40;18.83;;;;;;;-1.03;100.00;96116.59;5027379;28;20037;-62
2022/12/10 05:04:33;;;;;;;32.72;18.38;;;;;;;-1.02;100.00;96109.44;5027922;28;20763;-62
2022/12/10 05:07:00;;;;;;;26.80;16.80;;;;;;;-0.98;100.00;96110.66;5027470;28;20046;-63
2022/12/10 05:09:27;;;;;;;31.67;17.35;;;;;;;-0.98;100.00;96124.75;5032882;28;20050;-63
2022/12/10 05:11:53;;;;;;;29.30;16.98;;;;;;;-0.99;100.00;96120.44;5035405;28;20046;-62
2022/12/10 05:14:19;;;;;;;29.38;16.70;;;;;;;-0.99;100.00;96120.44;5027540;28;20052;-63
2022/12/10 05:16:49;;;;;;;32.22;16.92;;;;;;;-1.02;100.00;96120.88;5027379;28;20085;-62
2022/12/10 05:19:16;;;;;;;32.50;17.35;;;;;;;-1.04;100.00;96136.22;5036483;28;20040;-63
2022/12/10 05:24:44;;;;;;;31.63;17.58;;;;;;;-1.07;100.00;96118.84;5017280;28;20527;-63
2022/12/10 05:27:11;;;;;;;30.50;17.48;;;;;;;-0.99;100.00;96123.09;5041990;28;20136;-63
2022/12/10 05:29:37;;;;;;;33.38;17.60;;;;;;;-1.06;100.00;96132.97;5047077;28;20045;-63
2022/12/10 05:32:04;;;;;;;32.17;17.70;;;;;;;-1.06;100.00;96135.63;5046961;28;20129;-63
2022/12/10 05:34:31;;;;;;;35.58;17.42;;;;;;;-1.02;100.00;96143.97;5047131;28;20047;-63
2022/12/10 05:36:57;;;;;;;34.45;18.05;;;;;;;-1.04;100.00;96136.22;5046755;28;20045;-63
2022/12/10 05:39:24;;;;;;;29.95;17.13;;;;;;;-1.13;100.00;96134.81;5047107;28;20060;-62
2022/12/10 05:41:50;;;;;;;35.17;18.50;;;;;;;-1.16;100.00;96143.19;5032128;28;20053;-63
2022/12/10 05:44:16;;;;;;;27.98;17.38;;;;;;;-1.14;100.00;96136.63;5029272;28;20117;-64
2022/12/10 05:46:43;;;;;;;34.42;19.83;;;;;;;-1.15;100.00;96137.66;5027222;28;20627;-64
2022/12/10 05:49:09;;;;;;;31.92;18.45;;;;;;;-1.11;100.00;96148.72;5029028;28;20041;-63
2022/12/10 05:51:37;;;;;;;33.78;18.40;;;;;;;-1.11;100.00;96136.22;5026551;28;20140;-63
2022/12/10 05:54:05;;;;;;;33.42;17.88;;;;;;;-1.12;100.00;96139.09;5026416;28;20113;-63
2022/12/10 05:56:32;;;;;;;35.92;18.20;;;;;;;-1.09;100.00;96139.50;5026734;28;20061;-64
2022/12/10 05:59:01;;;;;;;35.13;18.02;;;;;;;-1.12;100.00;96145.22;5026704;28;20690;-63
2022/12/10 06:01:33;;;;;;;36.13;19.40;;;;;;;-1.11;100.00;96154.03;5026114;28;20049;-64
2022/12/10 06:04:01;;;;;;;42.05;19.35;;;;;;;-1.10;100.00;96159.09;5026652;28;20099;-63
2022/12/10 06:06:35;;;;;;;34.25;19.20;;;;;;;-1.09;100.00;96158.09;5026139;28;20085;-59
2022/12/10 06:09:02;;;;;;;35.28;18.10;;;;;;;-1.09;100.00;96154.63;5026738;28;20045;-58
2022/12/10 06:11:28;;;;;;;33.05;18.60;;;;;;;-1.15;100.00;96160.78;5064417;28;20144;-60
2022/12/10 06:13:58;;;;;;;38.45;19.08;;;;;;;-1.12;100.00;96165.66;5065953;28;20045;-60
2022/12/10 06:16:26;;;;;;;39.35;20.58;;;;;;;-1.19;100.00;96161.19;5066622;28;20419;-59
2022/12/10 06:18:53;;;;;;;37.25;19.92;;;;;;;-1.21;100.00;96165.06;5061296;28;20055;-58
2022/12/10 06:21:20;;;;;;;38.28;20.40;;;;;;;-1.28;100.00;96165.09;5045274;28;20114;-59
2022/12/10 06:23:51;;;;;;;37.88;19.23;;;;;;;-1.12;100.00;96177.09;5045973;28;20167;-59
2022/12/10 06:26:21;;;;;;;32.95;18.90;;;;;;;-1.14;100.00;96178.34;5045815;28;20051;-60
2022/12/10 06:28:48;;;;;;;34.35;17.88;;;;;;;-1.10;100.00;96171.59;5046182;28;20123;-59
2022/12/10 06:31:15;;;;;;;35.45;18.67;;;;;;;-1.20;100.00;96175.50;5045542;28;20045;-59
2022/12/10 06:33:43;;;;;;;39.80;20.40;;;;;;;-1.09;100.00;96176.69;5045959;28;20162;-60
2022/12/10 06:36:12;;;;;;;36.13;18.05;;;;;;;-1.07;100.00;96174.63;5045691;28;20079;-60
2022/12/10 06:38:39;;;;;;;32.63;17.40;;;;;;;-1.03;100.00;96176.88;5045952;28;20049;-60
2022/12/10 06:41:08;;;;;;;35.20;18.23;;;;;;;-1.00;100.00;96179.13;5042651;28;20133;-60
2022/12/10 06:43:35;;;;;;;32.63;17.60;;;;;;;-0.96;100.00;96188.34;5045779;28;20065;-60
2022/12/10 06:46:07;;;;;;;31.80;17.90;;;;;;;-0.94;100.00;96194.25;5045971;28;20086;-59
2022/12/10 06:48:34;;;;;;;33.80;18.15;;;;;;;-1.01;100.00;96198.75;5046588;28;20053;-59
2022/12/10 06:51:03;;;;;;;33.58;18.52;;;;;;;-1.08;100.00;96206.72;5045658;28;20048;-60
2022/12/10 06:53:30;;;;;;;32.30;18.00;;;;;;;-1.10;100.00;96200.81;5041126;28;20042;-60
2022/12/10 06:56:01;;;;;;;30.55;17.35;;;;;;;-1.01;100.00;96212.84;5025824;28;20103;-60
2022/12/10 06:58:28;;;;;;;31.58;17.95;;;;;;;-1.01;100.00;96207.53;5026200;28;20113;-59
2022/12/10 07:01:05;;;;;;;33.97;18.13;;;;;;;-1.03;100.00;96196.31;5025146;28;20045;-59
2022/12/10 07:03:32;;;;;;;31.50;17.48;;;;;;;-1.01;100.00;96196.91;5045235;28;20047;-58
2022/12/10 07:05:59;;;;;;;29.73;15.85;;;;;;;-0.93;100.00;96191.38;5045596;28;20037;-59
2022/12/10 07:08:26;;;;;;;28.17;16.95;;;;;;;-0.98;100.00;96199.16;5046022;28;20040;-59
2022/12/10 07:10:53;;;;;;;30.88;16.65;;;;;;;-0.98;100.00;96196.50;5049140;28;20038;-59
2022/12/10 07:13:19;;;;;;;31.80;17.25;;;;;;;-0.98;100.00;96199.16;5038350;28;20633;-58
2022/12/10 07:15:52;;;;;;;32.92;17.90;;;;;;;-1.02;100.00;96200.59;5050404;28;20115;-59
2022/12/10 07:18:18;;;;;;;33.35;17.27;;;;;;;-1.04;100.00;96213.25;5048468;28;20706;-58
2022/12/10 07:20:46;;;;;;;30.63;16.85;;;;;;;-1.07;100.00;96209.19;5013839;28;20048;-55
2022/12/10 07:23:13;;;;;;;32.47;17.83;;;;;;;-1.10;100.00;96211.44;5034260;28;20052;-59
2022/12/10 07:25:39;;;;;;;29.83;17.80;;;;;;;-1.09;100.00;96223.69;5039727;28;20123;-60
2022/12/10 07:28:06;;;;;;;30.20;16.23;;;;;;;-0.93;100.00;96219.78;5044654;28;20063;-60
2022/12/10 07:30:33;;;;;;;35.25;17.67;;;;;;;-1.07;100.00;96217.16;5040946;28;20049;-59
2022/12/10 07:32:59;;;;;;;34.53;17.73;;;;;;;-1.02;100.00;96224.50;5046332;28;20094;-62
2022/12/10 07:35:26;;;;;;;31.55;17.58;;;;;;;-0.99;100.00;96223.28;5035294;28;20049;-59
2022/12/10 07:37:52;;;;;;;31.02;16.48;;;;;;;-0.96;100.00;96228.19;5037377;28;20037;-52
2022/12/10 07:40:19;;;;;;;30.52;17.83;;;;;;;-0.92;100.00;96237.38;5041486;28;20512;-55
2022/12/10 07:42:45;;;;;;;30.73;16.90;;;;;;;-0.90;100.00;96226.53;5038843;28;20055;-58
2022/12/10 07:45:12;;;;;;;29.40;16.15;;;;;;;-0.84;100.00;96229.19;5042497;28;20127;-58
2022/12/10 07:47:38;;;;;;;30.25;17.00;;;;;;;-0.85;100.00;96229.41;5040904;28;20045;-58
2022/12/10 07:50:06;;;;;;;30.13;17.70;;;;;;;-0.91;100.00;96236.34;5043653;28;20128;-54
2022/12/10 07:52:33;;;;;;;33.55;18.40;;;;;;;-0.99;100.00;96239.22;5042259;28;20049;-59
2022/12/10 07:54:59;;;;;;;36.13;17.98;;;;;;;-1.01;100.00;96255.38;5042757;28;20044;-58
2022/12/10 07:57:28;;;;;;;30.90;17.58;;;;;;;-0.87;100.00;96255.34;5046521;28;20435;-59
2022/12/10 07:59:54;;;;;;;34.88;18.38;;;;;;;-0.88;100.00;96269.66;5046283;28;20045;-59
2022/12/10 08:02:21;;;;;;;33.15;18.40;;;;;;;-0.77;100.00;96263.75;5043863;28;20068;-59
2022/12/10 08:04:47;;;;;;;36.78;19.30;;;;;;;-0.84;100.00;96258.44;5038604;28;20492;-58
2022/12/10 08:07:14;;;;;;;35.38;17.92;;;;;;;-0.76;100.00;96260.03;5046565;28;20613;-58
2022/12/10 08:09:40;;;;;;;30.52;16.80;;;;;;;-0.75;100.00;96256.34;5048608;28;20079;-59
2022/12/10 08:12:07;;;;;;;34.30;17.17;;;;;;;-0.80;100.00;96264.13;5045107;28;20450;-59
2022/12/10 08:14:33;;;;;;;33.45;18.65;;;;;;;-0.83;100.00;96260.06;5046101;28;20520;-59
2022/12/10 08:17:00;;;;;;;31.48;18.08;;;;;;;-0.95;100.00;96262.50;5042243;28;20041;-59
2022/12/10 08:19:26;;;;;;;37.38;18.77;;;;;;;-0.95;100.00;96257.19;5039043;28;20135;-58
2022/12/10 08:21:57;;;;;;;34.50;18.73;;;;;;;-0.85;100.00;96250.66;5042470;28;20164;-60
2022/12/10 08:24:23;;;;;;;32.88;18.48;;;;;;;-0.78;100.00;96262.09;5038457;28;20044;-58
2022/12/10 08:26:50;;;;;;;32.50;17.65;;;;;;;-0.71;100.00;96254.91;5046227;28;20131;-57
2022/12/10 08:29:16;;;;;;;37.53;19.55;;;;;;;-0.69;100.00;96252.06;5038626;28;20128;-58
2022/12/10 08:31:43;;;;;;;31.85;18.08;;;;;;;-0.67;100.00;96250.81;5044725;28;20106;-57
2022/12/10 08:34:14;;;;;;;32.35;17.38;;;;;;;-0.59;100.00;96248.97;5059379;28;20051;-60
2022/12/10 08:36:41;;;;;;;31.65;17.38;;;;;;;-0.51;100.00;96254.06;5049137;28;20670;-58
2022/12/10 08:39:10;;;;;;;31.05;17.17;;;;;;;-0.47;100.00;96252.63;5059483;28;20110;-58
2022/12/10 08:41:36;;;;;;;32.65;18.33;;;;;;;-0.64;100.00;96265.53;5037223;28;20128;-57
2022/12/10 08:44:03;;;;;;;33.00;17.77;;;;;;;-0.70;100.00;96264.53;5046110;28;20041;-58
2022/12/10 08:46:29;;;;;;;28.67;16.48;;;;;;;-0.66;100.00;96273.72;5045910;28;20049;-57
2022/12/10 08:48:56;;;;;;;30.45;17.20;;;;;;;-0.75;100.00;96274.13;5046570;28;20040;-57
2022/12/10 08:51:23;;;;;;;30.63;16.38;;;;;;;-0.98;100.00;96280.72;5044878;28;20124;-58
2022/12/10 08:53:49;;;;;;;35.22;18.33;;;;;;;-1.08;100.00;96281.13;5033472;28;20500;-57
2022/12/10 08:56:16;;;;;;;33.92;18.77;;;;;;;-1.02;100.00;96292.78;5045657;28;20037;-59
2022/12/10 08:58:42;;;;;;;34.25;17.38;;;;;;;-0.99;100.00;96284.41;5045872;28;20040;-59
2022/12/10 09:01:12;;;;;;;33.83;18.77;;;;;;;-0.84;100.00;96286.84;5046135;28;20044;-60
2022/12/10 09:03:39;;;;;;;32.30;16.45;;;;;;;-0.78;100.00;96296.63;5038383;28;20037;-60
2022/12/10 09:06:11;;;;;;;34.45;18.40;;;;;;;-0.68;100.00;96294.38;5044879;28;20670;-58
2022/12/10 09:08:37;;;;;;;;;;;;;;;-0.67;100.00;96284.56;5038665;28;20486;-59
2022/12/10 09:11:10;;;;;;;31.05;16.77;;;;;;;-0.60;100.00;96289.84;5055853;28;19960;-60
2022/12/10 09:13:36;;;;;;;32.42;16.88;;;;;;;-0.72;100.00;96289.69;5045156;28;20200;-59
2022/12/10 09:16:04;;;;;;;34.78;18.80;;;;;;;-0.82;100.00;96293.59;5049838;28;20532;-58
2022/12/10 09:18:30;;;;;;;32.20;17.73;;;;;;;-0.70;100.00;96291.09;5046250;28;20055;-60
2022/12/10 09:20:57;;;;;;;34.75;18.15;;;;;;;-0.57;100.00;96297.44;5043303;28;20041;-57
2022/12/10 09:23:24;;;;;;;33.78;18.17;;;;;;;-0.45;100.00;96297.59;5045662;28;20584;-60
2022/12/10 09:25:50;;;;;;;25.83;15.23;;;;;;;-0.42;100.00;96311.31;5042593;28;20116;-59
2022/12/10 09:28:17;;;;;;;34.28;17.73;;;;;;;-0.44;100.00;96312.56;5045793;28;20059;-59
2022/12/10 09:30:43;;;;;;;30.52;17.10;;;;;;;-0.34;100.00;96323.56;5046580;28;20041;-58
2022/12/10 09:33:10;;;;;;;31.50;17.05;;;;;;;-0.41;100.00;96326.25;5063837;28;20044;-58
2022/12/10 09:35:40;;;;;;;28.10;15.90;;;;;;;-0.46;100.00;96323.41;5066618;28;20120;-59
2022/12/10 09:38:07;;;;;;;32.40;16.40;;;;;;;-0.32;100.00;96318.06;5038572;28;20045;-58
2022/12/10 09:40:45;;;;;;;30.80;16.27;;;;;;;-0.32;100.00;96320.72;5032612;28;20131;-59
2022/12/10 09:43:19;;;;;;;27.83;15.35;;;;;;;-0.24;100.00;96317.00;5060324;28;20047;-59
2022/12/10 09:46:27;;;;;;;28.35;15.50;;;;;;;-0.18;100.00;96327.63;5066711;28;20041;-59
2022/12/10 09:49:07;;;;;;;26.52;14.70;;;;;;;-0.31;100.00;96317.00;5054980;28;20063;-59
2022/12/10 09:51:36;;;;;;;28.50;15.90;;;;;;;-0.17;100.00;96321.28;5046340;28;20119;-58
2022/12/10 09:54:17;;;;;;;28.88;14.65;;;;;;;-0.17;100.00;96326.63;5046561;28;20045;-59
2022/12/10 09:56:45;;;;;;;29.70;15.13;;;;;;;-0.26;100.00;96322.53;5046221;28;20633;-59
2022/12/10 09:59:20;;;;;;;32.22;15.68;;;;;;;-0.17;100.00;96321.28;5046924;28;20041;-58
2022/12/10 10:01:58;;;;;;;25.25;14.65;;;;;;;-0.06;100.00;96325.16;5046001;28;20068;-59
2022/12/10 10:04:25;;;;;;;28.50;14.90;;;;;;;-0.24;100.00;96323.16;5046563;28;20127;-60
2022/12/10 10:06:52;;;;;;;30.00;16.63;;;;;;;-0.36;100.00;96316.81;5048354;28;20044;-60
2022/12/10 10:09:19;;;;;;;28.08;16.17;;;;;;;-0.31;100.00;96323.16;5030617;28;20133;-59
2022/12/10 10:11:46;;;;;;;26.63;14.43;;;;;;;-0.23;100.00;96316.78;5065927;28;20054;-59
2022/12/10 10:14:27;;;;;;;31.00;16.70;;;;;;;-0.27;100.00;96318.22;5066361;28;20093;-59
2022/12/10 10:17:01;;;;;;;28.88;15.70;;;;;;;-0.35;100.00;96323.78;5066363;28;20045;-58
2022/12/10 10:19:32;;;;;;;27.73;15.95;;;;;;;-0.40;100.00;96321.75;5057115;28;20543;-58
2022/12/10 10:21:59;;;;;;;29.15;15.98;;;;;;;-0.34;100.00;96317.44;5045726;28;20055;-57
2022/12/10 10:24:35;;;;;;;33.78;16.52;;;;;;;-0.18;100.00;96319.63;5046176;28;20072;-58
2022/12/10 10:27:28;;;;;;;28.85;15.57;;;;;;;-0.54;100.00;96311.16;5045956;28;20053;-58
2022/12/10 10:30:00;;;;;;;28.85;15.27;;;;;;;-0.31;100.00;96307.19;5046211;28;20049;-57
2022/12/10 10:32:35;;;;;;;27.38;15.13;;;;;;;-0.18;100.00;96309.00;5044771;28;20102;-58
2022/12/10 10:35:03;;;;;;;28.35;15.30;;;;;;;-0.02;100.00;96307.72;5043479;28;20051;-60
2022/12/10 10:37:41;;;;;;;32.35;17.10;;;;;;;-0.05;99.60;96309.97;5039235;28;20041;-57
2022/12/10 10:40:23;;;;;;;29.60;17.38;;;;;;;0.08;99.74;96307.25;5035703;28;20051;-58
2022/12/10 10:42:53;;;;;;;27.90;17.05;;;;;;;0.03;100.00;96309.75;5045421;28;20056;-57
2022/12/10 10:45:40;;;;;;;28.10;14.82;;;;;;;0.08;100.00;96317.09;5046058;28;20120;-58
2022/12/10 10:48:16;;;;;;;27.85;15.07;;;;;;;0.21;100.00;96318.88;5036210;28;20718;-59
2022/12/10 10:51:08;;;;;;;26.50;15.55;;;;;;;-0.04;100.00;96323.06;5055882;28;20048;-55
2022/12/10 10:53:51;;;;;;;26.05;16.23;;;;;;;-0.40;100.00;96325.22;5037276;28;20064;-60
2022/12/10 10:56:22;;;;;;;26.55;13.80;;;;;;;-0.30;100.00;96319.47;5031563;28;20079;-59
2022/12/10 10:59:25;;;;;;;25.75;15.23;;;;;;;-0.21;100.00;96322.72;5044465;28;20099;-58
2022/12/10 11:02:00;;;;;;;24.23;14.02;;;;;;;-0.20;100.00;96323.53;5042843;28;20047;-59
2022/12/10 11:04:48;;;;;;;27.20;14.05;;;;;;;-0.09;100.00;96319.41;5038374;28;20056;-59
2022/12/10 11:07:23;;;;;;;29.77;14.93;;;;;;;0.16;99.19;96326.69;5047672;28;20045;-59
2022/12/10 11:09:50;;;;;;;30.08;15.90;;;;;;;-0.02;99.12;96322.88;5054021;28;20127;-58
2022/12/10 11:12:35;;;;;;;24.90;15.50;;;;;;;-0.07;100.00;96320.03;5038531;28;20048;-59
2022/12/10 11:15:28;;;;;;;25.83;14.05;;;;;;;0.12;99.28;96327.09;5047505;28;20060;-59
2022/12/10 11:17:55;;;;;;;25.45;13.82;;;;;;;0.25;97.01;96317.44;5051550;28;20078;-59
2022/12/10 11:20:33;;;;;;;22.27;13.13;;;;;;;0.45;97.36;96319.19;5039151;28;20131;-58
2022/12/10 11:23:12;;;;;;;33.42;19.33;;;;;;;0.43;97.62;96331.88;5045762;28;20059;-59
2022/12/10 11:25:58;;;;;;;23.95;13.23;;;;;;;0.33;96.20;96327.84;5047039;28;20098;-59
2022/12/10 11:28:33;;;;;;;25.40;13.45;;;;;;;0.18;97.31;96330.78;5047727;28;20041;-59
2022/12/10 11:31:22;;;;;;;24.67;15.15;;;;;;;0.16;97.88;96329.34;5047320;28;20136;-58
2022/12/10 11:34:13;;;;;;;23.17;12.68;;;;;;;0.26;96.90;96327.06;5046220;28;20154;-58
2022/12/10 11:37:05;;;;;;;26.45;14.10;;;;;;;0.33;96.42;96327.84;5047847;28;20048;-59